Time;durP1;ratioP1;P1;durP2;ratioP2;P2;SDS_P1;SDS_P2;PMS_P1;PMS_P2;Temp;Humidity;BMP_temperature;BMP_pressure;BME280_temperature;BME280_humidity;BME280_pressure;Samples;Min_cycle;Max_cycle;Signal;HPM_P1;HPM_P2
2022/12/31 00:00:08;;;;;;;1.00;0.40;;;;;;;10.99;98.49;99728.55;105431;1295;60385;-74
2022/12/31 00:02:35;;;;;;;0.70;0.40;;;;;;;11.00;98.35;99736.48;105565;1286;75191;-74
2022/12/31 00:05:01;;;;;;;2.10;0.40;;;;;;;11.03;98.29;99744.38;105349;1295;71291;-74
2022/12/31 00:07:28;;;;;;;1.60;0.60;;;;;;;11.05;98.18;99749.03;105317;1292;72740;-74
2022/12/31 00:09:54;;;;;;;0.70;0.40;;;;;;;11.08;97.89;99748.83;105583;1293;58716;-74
2022/12/31 00:12:21;;;;;;;0.90;0.40;;;;;;;11.10;97.70;99750.13;105471;1294;59061;-74
2022/12/31 00:14:47;;;;;;;1.90;0.30;;;;;;;11.15;97.36;99752.73;105493;1295;58986;-74
2022/12/31 00:17:14;;;;;;;1.00;0.40;;;;;;;11.16;97.31;99746.12;105487;1293;59301;-74
2022/12/31 00:19:40;;;;;;;0.80;0.40;;;;;;;11.18;97.24;99742.71;105391;1296;59445;-74
2022/12/31 00:22:06;;;;;;;0.60;0.40;;;;;;;11.19;97.20;99737.66;105479;1295;59435;-74
2022/12/31 00:24:34;;;;;;;0.40;0.30;;;;;;;11.19;97.30;99735.79;105514;1295;59021;-74
2022/12/31 00:27:01;;;;;;;0.60;0.30;;;;;;;11.21;97.20;99737.83;105605;1293;74682;-74
2022/12/31 00:29:27;;;;;;;0.60;0.40;;;;;;;11.21;97.41;99740.84;105478;1294;59402;-74
2022/12/31 00:31:56;;;;;;;0.50;0.30;;;;;;;11.23;97.16;99745.50;105511;1297;59077;-74
2022/12/31 00:34:23;;;;;;;2.00;0.30;;;;;;;11.26;97.06;99746.41;105584;1288;61816;-74
2022/12/31 00:36:49;;;;;;;1.10;0.30;;;;;;;11.29;96.92;99744.24;105468;1295;59496;-74
2022/12/31 00:39:16;;;;;;;0.80;0.30;;;;;;;11.31;96.74;99742.69;105597;1291;59217;-74
2022/12/31 00:41:42;;;;;;;0.80;0.50;;;;;;;11.34;96.57;99737.77;105597;1294;59358;-73
2022/12/31 00:44:12;;;;;;;0.70;0.40;;;;;;;11.36;96.63;99740.16;105442;1295;70422;-74
2022/12/31 00:46:40;;;;;;;0.60;0.30;;;;;;;11.37;96.73;99746.33;105322;1294;59532;-74
2022/12/31 00:49:06;;;;;;;1.00;0.40;;;;;;;11.39;96.99;99742.41;105518;1293;59686;-74
2022/12/31 00:51:32;;;;;;;0.70;0.30;;;;;;;11.40;96.96;99748.46;105481;1287;74620;-74
2022/12/31 00:53:59;;;;;;;0.70;0.40;;;;;;;11.43;96.89;99748.59;105506;1294;71014;-74
2022/12/31 00:56:28;;;;;;;0.80;0.50;;;;;;;11.46;96.81;99755.49;105496;1296;71868;-74
2022/12/31 00:58:55;;;;;;;1.80;0.60;;;;;;;11.47;97.03;99751.98;105483;1295;60794;-74
2022/12/31 01:01:30;;;;;;;1.70;0.70;;;;;;;11.47;97.20;99743.89;105343;1301;60115;-74
2022/12/31 01:04:03;;;;;;;1.70;0.70;;;;;;;11.47;97.74;99755.21;105588;1293;73092;-74
2022/12/31 01:06:30;;;;;;;2.00;0.70;;;;;;;11.46;98.48;99752.88;105500;1294;70564;-74
2022/12/31 01:08:56;;;;;;;1.60;0.80;;;;;;;11.42;99.08;99748.13;105389;1296;71477;-74
2022/12/31 01:11:27;;;;;;;1.30;0.80;;;;;;;11.40;99.36;99743.27;105619;1293;61768;-74
2022/12/31 01:14:00;;;;;;;1.70;0.80;;;;;;;11.38;99.55;99750.30;105504;1294;59904;-74
2022/12/31 01:16:36;;;;;;;1.10;0.60;;;;;;;11.34;99.82;99756.14;105412;1291;74824;-74
2022/12/31 01:19:05;;;;;;;1.30;0.70;;;;;;;11.33;99.97;99761.98;105420;1298;70932;-74
2022/12/31 01:21:33;;;;;;;1.20;0.70;;;;;;;11.33;99.99;99765.48;105519;1296;71759;-74
2022/12/31 01:24:00;;;;;;;1.60;0.70;;;;;;;11.31;100.00;99766.95;105336;1294;60475;-74
2022/12/31 01:26:27;;;;;;;1.10;0.60;;;;;;;11.32;100.00;99781.02;105407;1295;60116;-74
2022/12/31 01:28:54;;;;;;;1.30;0.70;;;;;;;11.31;100.00;99782.92;105500;1295;74084;-74
2022/12/31 01:31:22;;;;;;;1.30;0.60;;;;;;;11.32;100.00;99780.52;105498;1285;71028;-74
2022/12/31 01:33:50;;;;;;;1.80;0.60;;;;;;;11.31;100.00;99782.44;105587;1288;71844;-74
2022/12/31 01:36:19;;;;;;;2.30;0.80;;;;;;;11.30;100.00;99779.50;105380;1294;62110;-74
2022/12/31 01:38:53;;;;;;;1.00;0.50;;;;;;;11.30;100.00;99776.92;105518;1301;60017;-74
2022/12/31 01:41:22;;;;;;;1.30;0.60;;;;;;;11.28;100.00;99776.84;105516;1295;74550;-74
2022/12/31 01:43:57;;;;;;;1.40;0.70;;;;;;;11.28;100.00;99778.64;105479;1295;69718;-74
2022/12/31 01:46:40;;;;;;;1.20;0.60;;;;;;;11.28;100.00;99774.02;105369;1296;71435;-75
2022/12/31 01:49:19;;;;;;;1.10;0.60;;;;;;;11.26;100.00;99777.16;105382;1295;60940;-74
2022/12/31 01:51:51;;;;;;;1.30;0.80;;;;;;;11.25;100.00;99770.70;105622;1287;60201;-74
2022/12/31 01:54:21;;;;;;;1.80;1.00;;;;;;;11.24;100.00;99771.08;105384;1280;74969;-74
2022/12/31 01:56:50;;;;;;;1.60;1.00;;;;;;;11.22;100.00;99773.20;105560;1295;71211;-73
2022/12/31 01:59:19;;;;;;;2.00;0.90;;;;;;;11.20;100.00;99775.52;105568;1294;71782;-73
2022/12/31 02:01:47;;;;;;;1.70;0.80;;;;;;;11.18;100.00;99780.39;105539;1287;61022;-73
2022/12/31 02:04:15;;;;;;;1.90;0.80;;;;;;;11.18;100.00;99779.73;105440;1301;59375;-74
2022/12/31 02:07:02;;;;;;;1.50;0.70;;;;;;;11.17;100.00;99776.04;105367;1291;74756;-74
2022/12/31 02:09:31;;;;;;;2.40;0.80;;;;;;;11.17;100.00;99774.58;105577;1294;71123;-73
2022/12/31 02:11:57;;;;;;;1.70;0.80;;;;;;;11.17;100.00;99773.60;105365;1290;71220;-73
2022/12/31 02:14:33;;;;;;;1.00;0.60;;;;;;;11.18;100.00;99766.17;105372;1295;61625;-73
2022/12/31 02:17:31;;;;;;;1.30;0.80;;;;;;;11.20;100.00;99757.89;105630;1294;58863;-74
2022/12/31 02:20:17;;;;;;;1.40;0.50;;;;;;;11.22;100.00;99754.90;105594;1287;73727;-75
2022/12/31 02:23:08;;;;;;;1.70;0.60;;;;;;;11.24;100.00;99746.33;105509;1293;70244;-75
2022/12/31 02:25:57;;;;;;;1.00;0.40;;;;;;;11.26;100.00;99744.16;105568;1293;72891;-75
2022/12/31 02:28:42;;;;;;;0.90;0.50;;;;;;;11.29;100.00;99737.75;105538;1287;60437;-75
2022/12/31 02:31:17;;;;;;;1.00;0.50;;;;;;;11.33;100.00;99734.56;105595;1293;58901;-75
2022/12/31 02:33:53;;;;;;;1.50;0.50;;;;;;;11.35;100.00;99736.54;105425;1293;74743;-75
2022/12/31 02:36:24;;;;;;;1.50;0.50;;;;;;;11.37;100.00;99727.47;105521;1298;71327;-75
2022/12/31 02:38:51;;;;;;;1.40;0.60;;;;;;;11.38;100.00;99724.36;105440;1298;73080;-75
2022/12/31 02:44:25;;;;;;;2.20;0.70;;;;;;;11.39;100.00;99721.71;105411;1290;60021;-75
2022/12/31 02:47:26;;;;;;;2.40;0.80;;;;;;;11.41;100.00;99719.59;105387;1293;73761;-75
2022/12/31 02:50:13;;;;;;;1.40;0.50;;;;;;;11.43;100.00;99716.52;105562;1294;69991;-75
2022/12/31 02:52:58;;;;;;;2.30;0.70;;;;;;;11.45;100.00;99716.48;105580;1290;72552;-75
2022/12/31 02:55:43;;;;;;;1.30;0.60;;;;;;;11.48;100.00;99716.27;105556;1293;61050;-75
2022/12/31 03:04:35;;;;;;;0.60;0.30;;;;;;;11.59;100.00;99717.77;105340;1279;70932;-75
2022/12/31 03:07:05;;;;;;;1.10;0.30;;;;;;;11.61;100.00;99708.74;105324;1291;72766;-76
2022/12/31 03:09:32;;;;;;;0.70;0.30;;;;;;;11.62;100.00;99708.35;105328;1283;62892;-77
2022/12/31 03:14:45;;;;;;;1.00;0.30;;;;;;;11.64;100.00;99708.48;105514;1294;74913;-77
2022/12/31 03:17:12;;;;;;;0.60;0.20;;;;;;;11.63;100.00;99703.84;105494;1296;69892;-77
2022/12/31 03:22:27;;;;;;;0.60;0.30;;;;;;;11.58;100.00;99691.91;105564;1287;59858;-77
2022/12/31 03:28:03;;;;;;;0.70;0.40;;;;;;;11.52;100.00;99693.23;105465;1294;73385;-77
2022/12/31 03:30:31;;;;;;;1.30;0.30;;;;;;;11.49;100.00;99707.23;105497;1295;69855;-77
2022/12/31 03:32:58;;;;;;;0.80;0.50;;;;;;;11.48;100.00;99699.45;105331;1297;70388;-77
2022/12/31 03:35:26;;;;;;;1.20;0.50;;;;;;;11.46;100.00;99690.82;105457;1295;60494;-77
2022/12/31 03:37:53;;;;;;;1.50;0.40;;;;;;;11.44;100.00;99689.55;105321;1296;59639;-77
2022/12/31 03:40:22;;;;;;;1.40;0.60;;;;;;;11.41;100.00;99693.19;105237;1298;74566;-78
2022/12/31 03:42:48;;;;;;;2.00;0.70;;;;;;;11.41;100.00;99682.97;105356;1289;71201;-77
2022/12/31 03:45:15;;;;;;;1.40;0.60;;;;;;;11.40;100.00;99685.10;105490;1290;59033;-78
2022/12/31 03:47:42;;;;;;;1.80;0.60;;;;;;;11.38;100.00;99692.21;105510;1295;59825;-77
2022/12/31 03:50:10;;;;;;;1.60;0.60;;;;;;;11.38;100.00;99684.73;105386;1294;59542;-77
2022/12/31 03:52:38;;;;;;;1.60;0.40;;;;;;;11.40;100.00;99685.55;105357;1297;74715;-77
2022/12/31 03:55:05;;;;;;;1.20;0.50;;;;;;;11.43;100.00;99679.05;105363;1294;72177;-77
2022/12/31 03:57:33;;;;;;;1.70;0.50;;;;;;;11.45;100.00;99671.05;105599;1287;71225;-77
2022/12/31 03:59:59;;;;;;;1.60;0.50;;;;;;;11.47;100.00;99670.59;105500;1295;60969;-77
2022/12/31 04:02:26;;;;;;;1.70;0.50;;;;;;;11.48;100.00;99666.42;105550;1293;58930;-77
2022/12/31 04:04:55;;;;;;;1.50;0.60;;;;;;;11.49;100.00;99661.08;105647;1293;75686;-78
2022/12/31 04:07:21;;;;;;;1.40;0.40;;;;;;;11.49;100.00;99650.44;105521;1288;71309;-77
2022/12/31 04:09:48;;;;;;;1.10;0.40;;;;;;;11.51;100.00;99648.12;105490;1296;72460;-78
2022/12/31 04:12:14;;;;;;;0.60;0.30;;;;;;;11.50;100.00;99645.02;105624;1287;59093;-77
2022/12/31 04:14:41;;;;;;;2.50;0.40;;;;;;;11.50;100.00;99632.27;105505;1290;58992;-77
2022/12/31 04:17:07;;;;;;;0.80;0.40;;;;;;;11.49;100.00;99621.41;105491;1295;59470;-77
2022/12/31 04:19:34;;;;;;;1.40;0.50;;;;;;;11.48;100.00;99621.95;105441;1297;70848;-77
2022/12/31 04:22:01;;;;;;;0.90;0.50;;;;;;;11.48;100.00;99618.87;105463;1290;71348;-77
2022/12/31 04:24:27;;;;;;;1.00;0.50;;;;;;;11.47;100.00;99605.27;105294;1295;60302;-77
2022/12/31 04:26:54;;;;;;;0.90;0.50;;;;;;;11.47;100.00;99601.70;105631;1287;59640;-77
2022/12/31 04:29:20;;;;;;;1.10;0.50;;;;;;;11.44;100.00;99595.71;105473;1296;59713;-77
2022/12/31 04:31:47;;;;;;;1.20;0.40;;;;;;;11.44;100.00;99597.14;105567;1287;70662;-77
2022/12/31 04:34:14;;;;;;;1.20;0.50;;;;;;;11.43;100.00;99598.24;105475;1288;59116;-77
2022/12/31 04:36:40;;;;;;;1.60;0.50;;;;;;;11.46;100.00;99589.13;105506;1293;62268;-77
2022/12/31 04:39:07;;;;;;;1.00;0.50;;;;;;;11.48;100.00;99593.25;105617;1293;59285;-77
2022/12/31 04:41:33;;;;;;;0.80;0.40;;;;;;;11.51;100.00;99590.02;105506;1287;73992;-77
2022/12/31 04:44:00;;;;;;;1.40;0.40;;;;;;;11.56;100.00;99589.64;105603;1295;70857;-76
2022/12/31 04:46:29;;;;;;;0.70;0.30;;;;;;;11.62;100.00;99599.58;105610;1295;59021;-76
2022/12/31 04:48:56;;;;;;;0.80;0.40;;;;;;;11.71;100.00;99603.90;105475;1294;62922;-77
2022/12/31 04:51:23;;;;;;;0.60;0.40;;;;;;;11.81;100.00;99608.08;105505;1294;60512;-76
2022/12/31 04:53:50;;;;;;;0.90;0.20;;;;;;;11.91;100.00;99613.86;105586;1292;74504;-77
2022/12/31 04:56:17;;;;;;;1.00;0.50;;;;;;;11.99;100.00;99607.29;105449;1298;71004;-76
2022/12/31 04:58:44;;;;;;;1.20;0.50;;;;;;;12.04;100.00;99630.91;105372;1290;72988;-76
2022/12/31 05:01:11;;;;;;;1.20;0.50;;;;;;;12.02;100.00;99642.86;105617;1294;61800;-76
2022/12/31 05:03:38;;;;;;;2.80;0.80;;;;;;;11.97;100.00;99659.02;105513;1287;60741;-76
2022/12/31 05:06:07;;;;;;;3.10;0.70;;;;;;;11.91;100.00;99681.73;105434;1287;74070;-75
2022/12/31 05:08:34;;;;;;;3.50;0.90;;;;;;;11.83;100.00;99676.50;105508;1296;71530;-76
2022/12/31 05:11:01;;;;;;;1.60;0.80;;;;;;;11.77;100.00;99687.52;105598;1278;73768;-76
2022/12/31 05:13:28;;;;;;;1.60;0.70;;;;;;;11.73;100.00;99700.39;105438;1270;61674;-76
2022/12/31 05:15:59;;;;;;;1.20;0.60;;;;;;;11.70;100.00;99694.70;105506;1294;59124;-76
2022/12/31 05:18:26;;;;;;;1.70;0.70;;;;;;;11.69;100.00;99690.55;105367;1294;72772;-75
2022/12/31 05:20:53;;;;;;;2.60;0.80;;;;;;;11.70;100.00;99688.95;105294;1298;69365;-75
2022/12/31 05:23:19;;;;;;;1.70;0.60;;;;;;;11.70;100.00;99681.96;105479;1295;72422;-75
2022/12/31 05:25:47;;;;;;;0.50;0.30;;;;;;;11.70;100.00;99683.19;105441;1293;59429;-75
2022/12/31 05:28:14;;;;;;;1.10;0.40;;;;;;;11.70;100.00;99679.84;105381;1289;59168;-75
2022/12/31 05:30:42;;;;;;;1.70;0.50;;;;;;;11.73;100.00;99676.27;105356;1287;73459;-75
2022/12/31 05:33:09;;;;;;;0.90;0.30;;;;;;;11.74;100.00;99679.14;105499;1290;69881;-75
2022/12/31 05:35:35;;;;;;;0.90;0.40;;;;;;;11.74;100.00;99685.84;105474;1293;72597;-75
2022/12/31 05:38:02;;;;;;;1.00;0.50;;;;;;;11.75;100.00;99692.43;105515;1287;60792;-75
2022/12/31 05:40:28;;;;;;;0.60;0.30;;;;;;;11.77;100.00;99698.41;105368;1294;58944;-75
2022/12/31 05:42:55;;;;;;;0.60;0.30;;;;;;;11.77;100.00;99714.70;105647;1290;58993;-75
2022/12/31 05:45:21;;;;;;;0.70;0.30;;;;;;;11.76;100.00;99726.70;105547;1285;59350;-75
2022/12/31 05:47:56;;;;;;;0.90;0.40;;;;;;;11.73;100.00;99722.23;105450;1290;71953;-75
2022/12/31 05:50:22;;;;;;;1.50;0.30;;;;;;;11.71;100.00;99726.09;105579;1295;59272;-75
2022/12/31 05:52:49;;;;;;;0.80;0.20;;;;;;;11.70;100.00;99730.81;105430;1297;59069;-75
2022/12/31 05:55:15;;;;;;;0.50;0.30;;;;;;;11.71;100.00;99736.58;105362;1294;59331;-75
2022/12/31 05:57:41;;;;;;;1.00;0.20;;;;;;;11.69;100.00;99742.30;105486;1290;59099;-75
2022/12/31 06:00:09;;;;;;;0.80;0.30;;;;;;;11.68;100.00;99740.58;105370;1294;59407;-75
2022/12/31 06:02:35;;;;;;;2.40;0.30;;;;;;;11.65;100.00;99753.08;105344;1297;59693;-76
2022/12/31 06:05:02;;;;;;;0.40;0.20;;;;;;;11.64;100.00;99753.08;105514;1295;58989;-76
2022/12/31 06:07:28;;;;;;;0.90;0.20;;;;;;;11.62;100.00;99749.82;105465;1295;73233;-76
2022/12/31 06:09:55;;;;;;;1.10;0.10;;;;;;;11.60;100.00;99745.64;105497;1297;58977;-76
2022/12/31 06:12:21;;;;;;;1.10;0.20;;;;;;;11.59;100.00;99745.10;105379;1297;59050;-76
2022/12/31 06:14:48;;;;;;;1.10;0.10;;;;;;;11.58;100.00;99734.29;105525;1295;59120;-75
2022/12/31 06:17:14;;;;;;;0.70;0.10;;;;;;;11.57;100.00;99740.26;105494;1290;59349;-76
2022/12/31 06:19:41;;;;;;;0.50;0.30;;;;;;;11.57;100.00;99718.96;105610;1294;59009;-76
2022/12/31 06:22:07;;;;;;;0.30;0.10;;;;;;;11.56;100.00;99734.98;105588;1287;59357;-76
2022/12/31 06:24:34;;;;;;;0.60;0.20;;;;;;;11.56;100.00;99725.30;105490;1290;58654;-76
2022/12/31 06:27:00;;;;;;;0.40;0.10;;;;;;;11.56;100.00;99732.05;105609;1287;59216;-75
2022/12/31 06:29:27;;;;;;;0.90;0.20;;;;;;;11.54;100.00;99735.23;105530;1294;58993;-75
2022/12/31 06:31:53;;;;;;;0.60;0.20;;;;;;;11.56;100.00;99734.16;105612;1285;58959;-75
2022/12/31 06:34:19;;;;;;;1.00;0.20;;;;;;;11.55;100.00;99722.02;105646;1292;59002;-75
2022/12/31 06:36:46;;;;;;;0.30;0.10;;;;;;;11.55;100.00;99727.74;105623;1287;59326;-75
2022/12/31 06:39:12;;;;;;;0.20;0.10;;;;;;;11.55;100.00;99720.47;105382;1294;226400;-75
2022/12/31 06:41:39;;;;;;;1.20;0.20;;;;;;;11.57;100.00;99719.20;105520;1290;59241;-75
2022/12/31 06:44:05;;;;;;;1.10;0.10;;;;;;;11.58;100.00;99725.30;105428;1294;58957;-76
2022/12/31 06:46:32;;;;;;;0.50;0.10;;;;;;;11.61;100.00;99729.63;105418;1294;59081;-76
2022/12/31 06:48:58;;;;;;;0.70;0.20;;;;;;;11.62;100.00;99736.38;105396;1293;59440;-76
2022/12/31 06:51:25;;;;;;;1.40;0.20;;;;;;;11.64;100.00;99743.89;105508;1295;59087;-76
2022/12/31 06:53:51;;;;;;;0.60;0.20;;;;;;;11.66;100.00;99749.65;105602;1294;58870;-75
2022/12/31 06:56:21;;;;;;;0.90;0.30;;;;;;;11.68;100.00;99748.86;105476;1290;59406;-75
2022/12/31 06:58:55;;;;;;;1.10;0.30;;;;;;;11.69;100.00;99737.71;105382;1290;69565;-75
2022/12/31 07:01:43;;;;;;;0.80;0.40;;;;;;;11.69;100.00;99743.55;105577;1290;70934;-76
2022/12/31 07:04:12;;;;;;;1.10;0.30;;;;;;;11.71;100.00;99746.42;105487;1297;61168;-76
2022/12/31 07:06:42;;;;;;;1.10;0.40;;;;;;;11.71;100.00;99748.05;105647;1291;59132;-76
2022/12/31 07:09:28;;;;;;;1.20;0.30;;;;;;;11.69;100.00;99743.15;105440;1294;75634;-75
2022/12/31 07:12:23;;;;;;;1.40;0.60;;;;;;;11.67;100.00;99739.34;105665;1285;70185;-75
2022/12/31 07:15:01;;;;;;;1.70;0.80;;;;;;;11.64;100.00;99756.67;105193;1301;71033;-75
2022/12/31 07:17:52;;;;;;;1.50;0.80;;;;;;;11.61;100.00;99750.84;105533;1291;60950;-75
2022/12/31 07:20:19;;;;;;;1.40;0.90;;;;;;;11.61;100.00;99747.09;105558;1294;58762;-76
2022/12/31 07:22:46;;;;;;;2.10;1.10;;;;;;;11.62;100.00;99748.85;105431;1297;73689;-75
2022/12/31 07:25:14;;;;;;;3.40;2.00;;;;;;;11.60;100.00;99745.97;105408;1290;69957;-75
2022/12/31 07:28:03;;;;;;;4.40;2.80;;;;;;;11.58;100.00;99746.09;104808;1291;71879;-77
2022/12/31 07:30:41;;;;;;;4.90;2.50;;;;;;;11.54;100.00;99747.52;105631;1294;60560;-77
2022/12/31 07:33:31;;;;;;;4.40;2.40;;;;;;;11.54;100.00;99722.05;105417;1293;60219;-77
2022/12/31 07:36:25;;;;;;;3.70;2.80;;;;;;;11.50;100.00;99754.39;105600;1295;74912;-77
2022/12/31 07:39:00;;;;;;;3.60;2.70;;;;;;;11.46;100.00;99761.99;105169;1287;69765;-77
2022/12/31 07:41:57;;;;;;;3.20;2.40;;;;;;;11.48;100.00;99762.56;103420;1298;71185;-75
2022/12/31 07:44:37;;;;;;;3.60;2.90;;;;;;;11.48;100.00;99757.38;103382;1288;61223;-77
2022/12/31 07:47:13;;;;;;;3.70;2.20;;;;;;;11.47;100.00;99771.70;103944;1301;59850;-77
2022/12/31 07:49:41;;;;;;;3.10;1.90;;;;;;;11.45;100.00;99780.09;103242;1300;73970;-76
2022/12/31 07:52:08;;;;;;;2.60;1.90;;;;;;;11.42;100.00;99775.06;103729;1295;69564;-76
2022/12/31 07:54:35;;;;;;;3.30;2.00;;;;;;;11.42;100.00;99794.79;103548;1301;71108;-76
2022/12/31 07:57:01;;;;;;;2.20;1.60;;;;;;;11.42;100.00;99800.63;104556;1300;61142;-76
2022/12/31 07:59:39;;;;;;;2.40;1.70;;;;;;;11.45;100.00;99795.82;103288;1297;61252;-76
2022/12/31 08:02:30;;;;;;;2.50;1.30;;;;;;;11.50;100.00;99807.52;103212;1295;74601;-76
2022/12/31 08:05:21;;;;;;;3.30;0.90;;;;;;;11.53;100.00;99815.80;103653;1301;69111;-77
2022/12/31 08:08:02;;;;;;;3.30;0.90;;;;;;;11.54;100.00;99816.09;103354;1294;72845;-76
2022/12/31 08:11:04;;;;;;;1.40;0.60;;;;;;;11.52;100.00;99814.83;103892;1293;60446;-76
2022/12/31 08:13:31;;;;;;;0.70;0.40;;;;;;;11.54;100.00;99823.45;103374;1301;61965;-74
2022/12/31 08:15:59;;;;;;;1.60;0.40;;;;;;;11.55;100.00;99824.02;103920;1302;73374;-76
2022/12/31 08:18:25;;;;;;;0.80;0.40;;;;;;;11.57;100.00;99822.92;103622;1287;71027;-76
2022/12/31 08:21:22;;;;;;;1.00;0.30;;;;;;;11.58;100.00;99831.30;102872;1301;73731;-77
2022/12/31 08:24:38;;;;;;;0.80;0.30;;;;;;;11.59;100.00;99843.52;103307;1294;61311;-75
2022/12/31 08:27:19;;;;;;;1.60;0.40;;;;;;;11.59;100.00;99840.45;102657;1305;61457;-72
2022/12/31 08:30:11;;;;;;;0.60;0.30;;;;;;;11.60;100.00;99857.01;102745;1313;76705;-74
2022/12/31 08:32:46;;;;;;;1.00;0.40;;;;;;;11.61;100.00;99860.14;103120;1301;71673;-75
2022/12/31 08:35:48;;;;;;;1.00;0.30;;;;;;;11.60;100.00;99851.75;103936;1295;71871;-75
2022/12/31 08:38:29;;;;;;;0.60;0.30;;;;;;;11.57;100.00;99849.11;102572;1308;61236;-76
2022/12/31 08:41:20;;;;;;;0.60;0.20;;;;;;;11.56;100.00;99850.99;103318;1300;61252;-75
2022/12/31 08:44:24;;;;;;;0.50;0.20;;;;;;;11.57;100.00;99842.14;103688;1297;73246;-73
2022/12/31 08:47:28;;;;;;;0.60;0.30;;;;;;;11.60;100.00;99846.95;103652;1294;70823;-74
2022/12/31 08:50:02;;;;;;;0.70;0.30;;;;;;;11.62;100.00;99850.89;103558;1294;72725;-75
2022/12/31 08:52:29;;;;;;;0.50;0.20;;;;;;;11.66;100.00;99848.89;103449;1298;61282;-75
2022/12/31 08:54:56;;;;;;;1.00;0.40;;;;;;;11.69;100.00;99845.58;103491;1288;61337;-71
2022/12/31 08:57:22;;;;;;;0.70;0.30;;;;;;;11.73;100.00;99843.20;103169;1297;73076;-71
2022/12/31 09:00:07;;;;;;;0.50;0.20;;;;;;;11.76;100.00;99847.83;103258;1285;61156;-70
2022/12/31 09:02:41;;;;;;;1.20;0.40;;;;;;;11.79;100.00;99846.94;103990;1300;72412;-69
2022/12/31 09:05:19;;;;;;;0.90;0.30;;;;;;;11.80;100.00;99841.58;104026;1286;61504;-70
2022/12/31 09:08:07;;;;;;;1.10;0.40;;;;;;;11.83;100.00;99838.58;105373;1294;60159;-70
2022/12/31 09:10:56;;;;;;;1.10;0.40;;;;;;;11.85;100.00;99837.94;105539;1287;73202;-70
2022/12/31 09:13:35;;;;;;;2.00;0.60;;;;;;;11.88;100.00;99837.50;105509;1295;70898;-71
2022/12/31 09:16:17;;;;;;;2.40;0.50;;;;;;;11.90;100.00;99827.98;105503;1293;70601;-70
2022/12/31 09:18:43;;;;;;;1.90;0.60;;;;;;;11.94;100.00;99828.97;105470;1294;61088;-71
2022/12/31 09:21:13;;;;;;;0.60;0.30;;;;;;;11.99;100.00;99829.30;105475;1290;59341;-70
2022/12/31 09:23:41;;;;;;;0.90;0.40;;;;;;;12.02;100.00;99824.89;105518;1287;74697;-70
2022/12/31 09:26:13;;;;;;;1.60;0.60;;;;;;;12.07;100.00;99829.58;105387;1297;70793;-70
2022/12/31 09:29:03;;;;;;;0.90;0.40;;;;;;;12.13;100.00;99824.02;105619;1294;71148;-70
2022/12/31 09:31:39;;;;;;;1.00;0.40;;;;;;;12.18;100.00;99829.65;105542;1292;60918;-70
2022/12/31 09:34:19;;;;;;;1.40;0.60;;;;;;;12.23;100.00;99830.17;105446;1294;61617;-70
2022/12/31 09:36:54;;;;;;;3.00;0.70;;;;;;;12.29;100.00;99833.20;105405;1295;73353;-70
2022/12/31 09:39:39;;;;;;;1.20;0.60;;;;;;;12.35;100.00;99824.92;105370;1290;71456;-70
2022/12/31 09:42:18;;;;;;;2.30;0.50;;;;;;;12.45;100.00;99828.13;105502;1287;71412;-70
2022/12/31 09:45:03;;;;;;;1.70;0.70;;;;;;;12.58;100.00;99828.71;105598;1293;60456;-70
2022/12/31 09:48:07;;;;;;;2.30;0.70;;;;;;;12.73;100.00;99828.13;105563;1291;60553;-70
2022/12/31 09:51:05;;;;;;;1.50;0.50;;;;;;;12.89;100.00;99824.08;105572;1279;74557;-70
2022/12/31 09:53:47;;;;;;;1.50;0.60;;;;;;;13.09;100.00;99824.42;105600;1293;69819;-70
2022/12/31 09:56:26;;;;;;;1.00;0.50;;;;;;;13.27;100.00;99816.20;105457;1297;72165;-70
2022/12/31 09:58:55;;;;;;;2.20;0.50;;;;;;;13.48;100.00;99811.88;105443;1288;61159;-70
2022/12/31 10:01:56;;;;;;;1.80;0.50;;;;;;;13.66;100.00;99823.14;105612;1286;60255;-70
2022/12/31 10:04:41;;;;;;;2.50;0.40;;;;;;;13.91;100.00;99814.91;105439;1294;73537;-71
2022/12/31 10:07:07;;;;;;;1.70;0.40;;;;;;;14.11;100.00;99819.13;105609;1290;71304;-70
2022/12/31 10:10:11;;;;;;;1.50;0.40;;;;;;;14.27;100.00;99819.38;105602;1293;59219;-70
2022/12/31 10:12:56;;;;;;;1.70;0.70;;;;;;;14.50;98.93;99812.11;105594;1287;60732;-71
2022/12/31 10:15:48;;;;;;;1.90;0.50;;;;;;;14.69;96.85;99822.61;105598;1286;59326;-71
2022/12/31 10:18:56;;;;;;;2.50;0.40;;;;;;;14.88;95.60;99810.71;105625;1291;74931;-71
2022/12/31 10:21:25;;;;;;;1.10;0.50;;;;;;;15.11;93.26;99810.36;105094;1301;70893;-70
2022/12/31 10:24:29;;;;;;;2.20;0.40;;;;;;;15.23;92.54;99800.67;105117;1297;70137;-71
2022/12/31 10:26:58;;;;;;;2.90;0.50;;;;;;;15.35;91.97;99792.64;105451;1294;60799;-70
2022/12/31 10:29:24;;;;;;;1.90;0.50;;;;;;;15.45;91.64;99796.12;105466;1293;59113;-70
2022/12/31 10:32:30;;;;;;;0.90;0.30;;;;;;;15.56;89.53;99801.05;105586;1294;59564;-70
2022/12/31 10:35:14;;;;;;;1.40;0.40;;;;;;;15.76;87.58;99787.96;105503;1295;71489;-70
2022/12/31 10:37:49;;;;;;;1.90;0.70;;;;;;;15.87;86.39;99788.73;105547;1293;72483;-70
2022/12/31 10:40:48;;;;;;;2.00;0.40;;;;;;;15.94;85.86;99794.90;105606;1287;61057;-70
2022/12/31 10:44:06;;;;;;;2.20;0.50;;;;;;;15.98;85.48;99789.87;105391;1285;59347;-71
2022/12/31 10:46:59;;;;;;;2.40;0.40;;;;;;;16.04;84.45;99806.38;105349;1294;74735;-71
2022/12/31 10:49:56;;;;;;;1.00;0.30;;;;;;;16.11;83.73;99799.96;105515;1295;71364;-70
2022/12/31 10:52:44;;;;;;;3.00;0.40;;;;;;;16.18;83.48;99807.34;105438;1289;72422;-71
2022/12/31 10:55:42;;;;;;;1.50;0.30;;;;;;;16.23;81.86;99807.77;105628;1294;61876;-71
2022/12/31 10:58:31;;;;;;;0.90;0.20;;;;;;;16.30;81.56;99801.13;105578;1294;59301;-71
2022/12/31 11:01:07;;;;;;;1.50;0.40;;;;;;;16.33;80.95;99803.98;105428;1288;74590;-71
2022/12/31 11:04:05;;;;;;;1.20;0.20;;;;;;;16.39;80.33;99803.45;105557;1294;70184;-71
2022/12/31 11:07:02;;;;;;;1.70;0.40;;;;;;;16.40;79.72;99802.14;105571;1293;72566;-72
2022/12/31 11:09:52;;;;;;;2.50;0.60;;;;;;;16.44;79.77;99801.49;105587;1294;60497;-72
2022/12/31 11:12:38;;;;;;;1.70;0.40;;;;;;;16.47;79.18;99814.61;105619;1293;60240;-72
2022/12/31 11:15:32;;;;;;;2.00;0.40;;;;;;;16.51;78.68;99823.36;105559;1294;73331;-72
2022/12/31 11:18:22;;;;;;;1.60;0.30;;;;;;;16.54;78.10;99819.47;105450;1294;69921;-72
2022/12/31 11:21:20;;;;;;;1.20;0.30;;;;;;;16.58;77.94;99842.16;105421;1293;72464;-72
2022/12/31 11:24:36;;;;;;;2.20;0.40;;;;;;;16.64;77.58;99827.66;105503;1293;62144;-72
2022/12/31 11:27:23;;;;;;;2.20;0.50;;;;;;;16.66;77.81;99859.68;105409;1292;60462;-72
2022/12/31 11:30:16;;;;;;;1.50;0.40;;;;;;;16.64;78.17;99845.80;105407;1297;74598;-72
2022/12/31 11:32:52;;;;;;;0.80;0.30;;;;;;;16.60;78.11;99852.42;105506;1295;69946;-72
2022/12/31 11:35:45;;;;;;;1.50;0.40;;;;;;;16.57;78.71;99866.70;105618;1294;71395;-72
2022/12/31 11:38:28;;;;;;;2.30;0.40;;;;;;;16.49;79.42;99888.16;105491;1290;61109;-72
2022/12/31 11:41:21;;;;;;;1.90;0.30;;;;;;;16.34;82.23;99914.86;105537;1297;59166;-72
2022/12/31 11:44:27;;;;;;;1.60;0.50;;;;;;;15.83;88.62;99940.78;105515;1294;75753;-71
2022/12/31 11:47:32;;;;;;;2.00;0.40;;;;;;;15.25;93.34;99927.17;105359;1296;69647;-72
2022/12/31 11:50:35;;;;;;;1.20;0.50;;;;;;;14.91;96.56;99923.69;105493;1289;70555;-71
2022/12/31 11:53:24;;;;;;;1.10;0.50;;;;;;;14.68;98.62;99936.05;105552;1285;62196;-71
2022/12/31 11:56:09;;;;;;;1.80;0.60;;;;;;;14.63;99.21;99924.16;105484;1289;59258;-71
2022/12/31 11:58:36;;;;;;;2.40;0.70;;;;;;;14.61;99.94;99923.19;105522;1293;73163;-71
2022/12/31 12:01:23;;;;;;;1.90;0.80;;;;;;;14.61;99.98;99918.90;105524;1300;70687;-71
2022/12/31 12:03:50;;;;;;;3.60;0.70;;;;;;;14.60;100.00;99914.08;105485;1297;71445;-71
2022/12/31 12:06:23;;;;;;;2.10;0.80;;;;;;;14.61;100.00;99915.05;105617;1300;61889;-71
2022/12/31 12:08:50;;;;;;;2.70;0.70;;;;;;;14.62;100.00;99907.89;105373;1297;59415;-72
2022/12/31 12:11:22;;;;;;;2.10;0.70;;;;;;;14.65;100.00;99901.88;105539;1291;74030;-72
2022/12/31 12:13:49;;;;;;;2.70;0.70;;;;;;;14.66;100.00;99903.39;105422;1297;69651;-72